Time;durP1;ratioP1;P1;durP2;ratioP2;P2;SDS_P1;SDS_P2;PMS_P1;PMS_P2;Temp;Humidity;BMP_temperature;BMP_pressure;BME280_temperature;BME280_humidity;BME280_pressure;Samples;Min_cycle;Max_cycle;Signal;HPM_P1;HPM_P2
2021/12/11 00:02:15;;;;;;;5.10;3.40;;;;;;;15.46;32.55;100903.78;5154200;27;20415;-67
2021/12/11 00:04:43;;;;;;;4.55;3.13;;;;;;;15.42;32.44;100902.28;5154737;27;20030;-67
2021/12/11 00:07:13;;;;;;;7.30;3.08;;;;;;;15.39;32.90;100907.88;5154960;27;20117;-65
2021/12/11 00:09:43;;;;;;;4.68;3.47;;;;;;;15.36;33.06;100908.97;5153624;27;20115;-70
2021/12/11 00:12:23;;;;;;;5.93;3.63;;;;;;;15.35;33.23;100909.94;5153724;27;20031;-67
2021/12/11 00:15:07;;;;;;;5.15;3.40;;;;;;;15.35;33.12;100911.75;5153769;27;20053;-67
2021/12/11 00:17:34;;;;;;;5.72;3.25;;;;;;;15.33;33.11;100903.84;5156516;27;20388;-66
2021/12/11 00:20:00;;;;;;;6.15;3.90;;;;;;;15.31;33.13;100910.28;5154834;27;20038;-72
2021/12/11 00:22:30;;;;;;;4.85;3.80;;;;;;;15.31;33.25;100904.94;5154487;27;20019;-68
2021/12/11 00:25:05;;;;;;;5.72;3.60;;;;;;;15.33;32.91;100911.84;5150610;27;20434;-69
2021/12/11 00:27:34;;;;;;;6.53;3.88;;;;;;;15.33;33.32;100908.34;5153454;27;20031;-69
2021/12/11 00:30:00;;;;;;;6.88;3.60;;;;;;;15.35;33.23;100911.75;5134099;27;20046;-72
2021/12/11 00:32:32;;;;;;;7.05;3.20;;;;;;;15.35;33.08;100904.59;5153906;27;20042;-76
2021/12/11 00:35:04;;;;;;;7.25;3.70;;;;;;;15.35;33.08;100901.94;5136610;27;20031;-70
2021/12/11 00:37:30;;;;;;;5.60;3.47;;;;;;;15.36;33.40;100905.47;5165052;27;20030;-68
2021/12/11 00:40:21;;;;;;;5.88;3.13;;;;;;;15.35;33.20;100893.09;5154828;27;20031;-66
2021/12/11 00:42:50;;;;;;;5.63;3.80;;;;;;;15.34;33.48;100896.72;5155723;27;20022;-73
2021/12/11 00:45:22;;;;;;;8.20;3.92;;;;;;;15.36;33.26;100913.47;5145197;27;20054;-66
2021/12/11 00:48:00;;;;;;;8.50;3.50;;;;;;;15.35;33.11;100907.25;5149127;27;20057;-67
2021/12/11 00:50:31;;;;;;;6.82;3.92;;;;;;;15.38;33.19;100908.81;5154760;27;20493;-67
2021/12/11 00:53:08;;;;;;;5.43;3.38;;;;;;;15.41;32.88;100908.59;5149769;27;20037;-72
2021/12/11 00:55:38;;;;;;;5.93;3.35;;;;;;;15.39;32.99;100902.53;5144288;27;20035;-67
2021/12/11 00:58:09;;;;;;;6.47;3.67;;;;;;;15.40;32.76;100904.22;5152152;27;20034;-65
2021/12/11 01:00:50;;;;;;;6.30;3.33;;;;;;;15.40;32.58;100904.22;5147826;27;20030;-74
2021/12/11 01:03:22;;;;;;;5.05;2.75;;;;;;;15.41;32.43;100897.94;5151105;27;20635;-72
2021/12/11 01:05:51;;;;;;;4.05;2.90;;;;;;;15.44;32.43;100900.38;5153434;27;20033;-68
2021/12/11 01:08:24;;;;;;;5.75;3.63;;;;;;;15.42;32.39;100891.63;5153816;27;20397;-66
2021/12/11 01:10:57;;;;;;;5.40;3.40;;;;;;;15.45;32.58;100902.06;5153825;27;20401;-71
2021/12/11 01:13:27;;;;;;;14.35;3.97;;;;;;;15.56;32.96;100904.75;5153397;27;20034;-63
2021/12/11 01:15:58;;;;;;;6.40;3.38;;;;;;;15.70;33.21;100905.47;5153480;27;20412;-65
2021/12/11 01:18:34;;;;;;;4.60;2.80;;;;;;;15.85;32.89;100903.47;5153506;27;20035;-67
2021/12/11 01:26:34;;;;;;;5.70;3.30;;;;;;;16.23;32.87;100909.38;5136752;27;20035;-66
2021/12/11 01:29:00;;;;;;;4.38;2.85;;;;;;;16.31;33.02;100907.78;5149001;27;20481;-65
2021/12/11 01:31:27;;;;;;;4.85;3.22;;;;;;;16.41;32.50;100912.38;5148566;27;20043;-66
2021/12/11 01:33:57;;;;;;;4.88;2.50;;;;;;;16.50;32.52;100913.44;5147731;27;20564;-65
2021/12/11 01:36:23;;;;;;;4.70;3.28;;;;;;;16.54;32.70;100907.72;5135309;27;20035;-65
2021/12/11 01:38:58;;;;;;;9.30;3.05;;;;;;;16.60;32.41;100906.34;5143805;27;20031;-65
2021/12/11 01:41:24;;;;;;;3.80;2.95;;;;;;;16.65;32.34;100919.34;5132627;27;20065;-65
2021/12/11 01:43:55;;;;;;;4.30;2.70;;;;;;;16.70;32.13;100922.47;5136857;27;20484;-65
2021/12/11 01:46:23;;;;;;;;;;;;;;;16.63;32.14;100917.63;5134260;27;20038;-65
2021/12/11 01:48:53;;;;;;;4.65;2.53;;;;;;;16.70;32.34;100915.31;5144824;27;19926;-65
2021/12/11 01:51:54;;;;;;;4.18;2.78;;;;;;;16.73;32.64;100925.75;5150728;27;20481;-65
2021/12/11 01:54:33;;;;;;;6.53;2.72;;;;;;;16.76;32.43;100924.66;5147876;27;20031;-65
2021/12/11 01:57:23;;;;;;;5.43;2.58;;;;;;;16.76;32.29;100925.50;5132939;27;20122;-65
2021/12/11 01:59:56;;;;;;;6.00;2.85;;;;;;;16.77;32.66;100927.19;5138030;27;20122;-66
2021/12/11 02:02:34;;;;;;;4.10;2.85;;;;;;;16.78;32.25;100922.69;5132897;27;20027;-65
2021/12/11 02:05:01;;;;;;;4.97;2.42;;;;;;;16.78;32.51;100931.56;5132480;27;20030;-65
2021/12/11 02:07:37;;;;;;;5.50;3.05;;;;;;;16.80;32.05;100927.91;5134054;27;20146;-66
2021/12/11 02:10:10;;;;;;;4.78;2.88;;;;;;;16.80;32.26;100926.09;5146891;27;20105;-65
2021/12/11 02:12:40;;;;;;;4.35;2.85;;;;;;;16.78;32.12;100923.53;5151476;27;20394;-65
2021/12/11 02:15:10;;;;;;;4.15;2.70;;;;;;;16.77;32.03;100921.84;5144185;27;20109;-65
2021/12/11 02:17:52;;;;;;;3.60;2.40;;;;;;;16.76;32.38;100919.31;5153180;27;20027;-65
2021/12/11 02:20:28;;;;;;;4.05;2.97;;;;;;;16.74;31.75;100924.78;5141127;27;20077;-65
2021/12/11 02:22:54;;;;;;;4.82;2.88;;;;;;;16.74;31.33;100931.94;5143953;27;20526;-65
2021/12/11 02:25:27;;;;;;;4.00;2.30;;;;;;;16.72;32.21;100928.56;5132998;28;20443;-65
2021/12/11 02:27:58;;;;;;;2.78;2.13;;;;;;;16.71;32.10;100940.22;5136117;27;20050;-65
2021/12/11 02:30:53;;;;;;;5.57;3.00;;;;;;;16.68;32.02;100944.00;5153372;27;20064;-65
2021/12/11 02:33:26;;;;;;;4.65;2.90;;;;;;;16.69;32.00;100943.00;5125564;27;20134;-65
2021/12/11 02:36:13;;;;;;;3.90;2.80;;;;;;;16.68;31.89;100945.81;5136913;27;20069;-65
2021/12/11 02:39:12;;;;;;;3.78;2.40;;;;;;;16.67;32.25;100944.09;5156070;27;20053;-65
2021/12/11 02:42:03;;;;;;;4.90;2.95;;;;;;;16.65;32.15;100941.56;5156759;27;20035;-65
2021/12/11 02:44:55;;;;;;;5.57;2.67;;;;;;;16.64;32.12;100934.53;5144637;27;20412;-66
2021/12/11 02:47:29;;;;;;;4.90;2.67;;;;;;;16.65;32.26;100936.22;5141951;27;20050;-66
2021/12/11 02:50:07;;;;;;;4.30;2.72;;;;;;;16.63;32.47;100935.50;5136312;27;20442;-65
2021/12/11 02:52:58;;;;;;;4.03;2.17;;;;;;;16.62;32.70;100925.78;5142072;27;20038;-65
2021/12/11 02:55:34;;;;;;;3.35;2.40;;;;;;;16.63;32.94;100927.50;5136360;27;20050;-66
2021/12/11 02:58:08;;;;;;;5.43;2.80;;;;;;;16.67;32.89;100928.06;5143922;27;20488;-66
2021/12/11 03:00:45;;;;;;;3.00;2.17;;;;;;;16.68;32.74;100930.63;5156852;27;20043;-66
2021/12/11 03:03:15;;;;;;;3.70;2.33;;;;;;;16.74;32.74;100938.13;5147589;27;20019;-65
2021/12/11 03:05:51;;;;;;;3.17;2.22;;;;;;;16.78;32.81;100939.59;5135787;27;20038;-66
2021/12/11 03:08:19;;;;;;;3.78;2.78;;;;;;;16.84;32.61;100932.88;5143834;27;20331;-66
2021/12/11 03:10:49;;;;;;;3.20;2.25;;;;;;;16.91;32.70;100935.88;5156419;27;20121;-65
2021/12/11 03:13:15;;;;;;;3.60;2.37;;;;;;;16.95;32.52;100932.03;5146838;27;20509;-65
2021/12/11 03:15:41;;;;;;;3.15;2.17;;;;;;;17.00;32.74;100923.59;5135682;27;20038;-65
2021/12/11 03:18:07;;;;;;;3.28;2.05;;;;;;;17.03;32.22;100926.03;5133103;27;20396;-66
2021/12/11 03:20:36;;;;;;;3.10;2.10;;;;;;;17.05;32.57;100938.28;5156271;27;20114;-65
2021/12/11 03:23:03;;;;;;;3.85;2.20;;;;;;;17.06;32.16;100934.63;5143126;27;20023;-65
2021/12/11 03:25:29;;;;;;;4.78;2.75;;;;;;;17.11;32.32;100936.09;5135760;27;20057;-65
2021/12/11 03:27:56;;;;;;;4.07;2.60;;;;;;;17.15;32.08;100940.19;5140821;27;20030;-66
2021/12/11 03:30:35;;;;;;;3.85;2.10;;;;;;;17.18;31.83;100938.13;5155794;27;20121;-66
2021/12/11 03:33:06;;;;;;;4.15;2.55;;;;;;;17.21;32.04;100943.19;5154211;27;20035;-65
2021/12/11 03:35:33;;;;;;;4.75;2.70;;;;;;;17.27;32.25;100949.00;5156096;27;20434;-66
2021/12/11 03:37:59;;;;;;;3.30;2.40;;;;;;;17.29;32.04;100939.84;5155078;27;20113;-65
2021/12/11 03:40:26;;;;;;;2.85;2.22;;;;;;;17.33;31.95;100937.78;5162313;27;20492;-66
2021/12/11 03:42:58;;;;;;;4.07;2.53;;;;;;;17.33;31.90;100935.94;5161294;27;20505;-66
2021/12/11 03:45:31;;;;;;;4.55;2.45;;;;;;;17.36;31.78;100942.84;5134602;27;20038;-65
2021/12/11 03:48:08;;;;;;;4.20;3.05;;;;;;;17.36;31.92;100941.03;5149959;27;20030;-66
2021/12/11 03:50:35;;;;;;;3.92;2.25;;;;;;;17.37;32.23;100940.06;5155606;27;20030;-66
2021/12/11 03:53:01;;;;;;;3.53;2.33;;;;;;;17.37;32.38;100940.06;5150260;27;20023;-66
2021/12/11 03:55:31;;;;;;;3.35;2.10;;;;;;;17.37;32.37;100940.06;5139609;27;20401;-65
2021/12/11 03:58:00;;;;;;;3.63;2.70;;;;;;;17.37;32.48;100933.84;5155167;27;20110;-66
2021/12/11 04:00:33;;;;;;;4.10;2.25;;;;;;;17.38;32.50;100922.16;5154719;27;20034;-66
2021/12/11 04:03:05;;;;;;;3.75;2.88;;;;;;;17.39;32.72;100923.88;5149212;27;20023;-66
2021/12/11 04:05:32;;;;;;;;;;;;;;;17.31;32.40;100923.69;5135083;27;20490;-66
2021/12/11 04:07:58;;;;;;;3.60;2.10;;;;;;;17.33;32.73;100925.25;5135224;27;20259;-66
2021/12/11 04:10:27;;;;;;;3.08;2.03;;;;;;;17.32;32.70;100930.75;5134861;27;20114;-65
2021/12/11 04:12:55;;;;;;;4.90;3.17;;;;;;;17.29;32.22;100931.81;5151715;27;20034;-66
2021/12/11 04:15:21;;;;;;;4.15;2.28;;;;;;;17.27;32.27;100923.13;5155528;27;20026;-66
2021/12/11 04:17:46;;;;;;;4.68;2.38;;;;;;;17.24;32.55;100921.53;5146204;27;20035;-66
2021/12/11 04:20:15;;;;;;;2.78;1.77;;;;;;;17.22;32.34;100915.44;5155112;27;20481;-65
2021/12/11 04:22:43;;;;;;;3.92;2.67;;;;;;;17.18;32.00;100921.19;5152976;27;20039;-66
2021/12/11 04:25:11;;;;;;;4.97;2.83;;;;;;;17.16;31.96;100921.34;5134334;27;20031;-66
2021/12/11 04:27:37;;;;;;;3.58;2.47;;;;;;;17.15;32.50;100916.97;5134575;27;20057;-66
2021/12/11 04:30:08;;;;;;;3.03;2.25;;;;;;;17.15;32.25;100924.13;5155699;27;20109;-66
2021/12/11 04:32:35;;;;;;;4.25;2.50;;;;;;;17.13;32.22;100926.13;5152731;27;20508;-65
2021/12/11 04:35:03;;;;;;;4.22;2.55;;;;;;;17.12;32.09;100916.38;5152653;27;20026;-65
2021/12/11 04:37:30;;;;;;;3.42;2.00;;;;;;;17.10;32.47;100919.19;5153715;27;20023;-66
2021/12/11 04:40:03;;;;;;;4.40;2.40;;;;;;;17.12;32.20;100916.38;5154472;27;20057;-65
2021/12/11 04:45:08;;;;;;;3.10;2.13;;;;;;;17.07;32.41;100906.06;5138177;27;20027;-65
2021/12/11 04:47:41;;;;;;;2.72;2.00;;;;;;;17.07;32.16;100916.75;5143859;27;20028;-65
2021/12/11 04:50:23;;;;;;;3.05;2.17;;;;;;;17.10;32.54;100919.19;5141026;27;20030;-66
2021/12/11 04:52:57;;;;;;;2.78;2.25;;;;;;;17.11;32.35;100915.53;5153683;27;20027;-64
2021/12/11 05:11:16;;;;;;;3.83;2.50;;;;;;;17.27;32.19;100925.78;5134378;27;20046;-65
2021/12/11 05:13:43;;;;;;;3.00;1.88;;;;;;;17.30;31.95;100922.00;5149268;27;20079;-64
2021/12/11 05:16:12;;;;;;;3.40;2.13;;;;;;;17.33;31.85;100917.22;5152232;27;20077;-64
2021/12/11 05:18:40;;;;;;;3.10;1.95;;;;;;;17.34;31.70;100913.56;5151277;27;20144;-64
2021/12/11 05:21:09;;;;;;;2.83;2.10;;;;;;;17.36;31.88;100916.97;5133387;27;20383;-65
2021/12/11 05:23:35;;;;;;;4.57;2.45;;;;;;;17.37;31.63;100901.75;5145561;27;20493;-65
2021/12/11 05:26:01;;;;;;;2.85;2.00;;;;;;;17.40;31.66;100906.84;5144982;27;20035;-64
2021/12/11 05:28:27;;;;;;;2.75;2.03;;;;;;;17.41;31.72;100903.19;5154554;27;20800;-64
2021/12/11 05:30:55;;;;;;;3.58;2.17;;;;;;;17.41;31.65;100899.69;5152753;27;20051;-64
2021/12/11 05:33:22;;;;;;;5.03;2.95;;;;;;;17.43;31.39;100900.38;5138795;27;20046;-64
2021/12/11 05:35:48;;;;;;;4.57;2.97;;;;;;;17.42;31.55;100904.06;5146265;27;20030;-64
2021/12/11 05:38:18;;;;;;;3.15;2.33;;;;;;;17.45;31.72;100909.13;5147678;27;20496;-64
2021/12/11 05:40:50;;;;;;;4.18;2.38;;;;;;;17.46;31.52;100916.16;5151586;27;20211;-64
2021/12/11 05:43:17;;;;;;;3.30;2.42;;;;;;;17.45;31.58;100915.34;5147424;27;20029;-64
2021/12/11 05:45:43;;;;;;;3.30;2.10;;;;;;;17.45;31.63;100911.78;5147099;27;20027;-65
2021/12/11 05:48:09;;;;;;;5.03;2.47;;;;;;;17.44;31.58;100918.13;5146145;27;20067;-64
2021/12/11 05:50:43;;;;;;;3.75;2.30;;;;;;;17.45;31.86;100911.78;5153846;27;20393;-65
2021/12/11 05:53:09;;;;;;;4.28;2.72;;;;;;;17.43;31.64;100909.25;5146823;27;20485;-64
2021/12/11 05:55:36;;;;;;;4.55;2.58;;;;;;;17.42;31.71;100920.09;5133223;28;20092;-65
2021/12/11 05:58:10;;;;;;;6.38;2.75;;;;;;;17.41;31.67;100913.06;5141388;27;20014;-66
2021/12/11 06:00:40;;;;;;;3.45;2.45;;;;;;;17.41;31.74;100916.56;5154239;27;20035;-66
2021/12/11 06:03:06;;;;;;;4.00;2.90;;;;;;;17.40;31.42;100920.22;5135019;27;20547;-66
2021/12/11 06:05:32;;;;;;;5.30;2.45;;;;;;;17.36;31.53;100925.00;5132992;28;20565;-65
2021/12/11 06:07:58;;;;;;;3.55;2.65;;;;;;;17.36;31.37;100924.13;5123169;27;20118;-64
2021/12/11 06:10:25;;;;;;;4.20;2.78;;;;;;;17.36;31.02;100933.03;5157847;27;20058;-64
2021/12/11 06:12:53;;;;;;;5.63;2.45;;;;;;;17.36;31.57;100940.19;5139457;27;20507;-64
2021/12/11 06:15:20;;;;;;;5.07;2.72;;;;;;;17.34;31.35;100931.47;5136637;27;20038;-67
2021/12/11 06:17:46;;;;;;;4.53;2.50;;;;;;;17.33;31.59;100938.63;5139327;27;20034;-65
2021/12/11 06:20:17;;;;;;;4.07;2.60;;;;;;;17.33;31.00;100933.28;5157808;27;20122;-65
2021/12/11 06:22:43;;;;;;;5.70;2.90;;;;;;;17.33;31.18;100943.13;5147138;27;20103;-66
2021/12/11 06:25:17;;;;;;;4.30;2.97;;;;;;;17.28;31.31;100935.47;5140635;27;20046;-65
2021/12/11 06:27:43;;;;;;;3.83;2.55;;;;;;;17.32;31.16;100946.78;5148449;27;20038;-64
2021/12/11 06:30:11;;;;;;;4.03;2.45;;;;;;;17.29;31.53;100945.22;5156871;27;20446;-64
2021/12/11 06:32:37;;;;;;;2.80;2.25;;;;;;;17.29;31.34;100942.53;5151939;27;20051;-64
2021/12/11 06:35:25;;;;;;;5.68;4.07;;;;;;;17.28;31.07;100942.66;5143361;27;20035;-64
2021/12/11 06:37:50;;;;;;;3.40;2.40;;;;;;;17.29;31.31;100937.19;5151853;27;20058;-66
2021/12/11 06:40:17;;;;;;;4.32;2.78;;;;;;;17.29;31.09;100937.19;5157182;27;20035;-65
2021/12/11 06:42:43;;;;;;;4.70;2.40;;;;;;;17.26;31.28;100925.91;5156153;27;20027;-64
2021/12/11 06:45:08;;;;;;;3.22;2.33;;;;;;;17.26;31.20;100928.56;5157289;27;20034;-64
2021/12/11 06:47:34;;;;;;;3.75;2.50;;;;;;;17.26;31.63;100928.56;5153679;27;20497;-65
2021/12/11 06:50:03;;;;;;;3.80;2.38;;;;;;;17.25;31.88;100927.75;5156185;27;20113;-65
2021/12/11 06:52:28;;;;;;;6.60;2.80;;;;;;;17.29;31.58;100929.16;5156041;27;20117;-66
2021/12/11 06:54:54;;;;;;;3.15;2.35;;;;;;;17.32;32.09;100936.94;5156506;27;20133;-65
2021/12/11 06:57:20;;;;;;;3.97;2.60;;;;;;;17.34;31.50;100924.28;5155613;27;20358;-65
2021/12/11 06:59:47;;;;;;;2.85;2.38;;;;;;;17.38;31.60;100924.84;5156234;27;20087;-65
2021/12/11 07:02:16;;;;;;;5.55;2.42;;;;;;;17.39;31.73;100922.06;5156273;27;20026;-65
2021/12/11 07:04:41;;;;;;;4.45;2.50;;;;;;;17.42;31.58;100914.75;5147621;27;20121;-65
2021/12/11 07:07:07;;;;;;;3.47;2.38;;;;;;;17.45;31.70;100925.16;5155387;27;20103;-65
2021/12/11 07:09:33;;;;;;;3.60;2.47;;;;;;;17.47;31.53;100924.09;5155457;27;20455;-65
2021/12/11 07:12:00;;;;;;;4.18;2.67;;;;;;;17.50;31.62;100925.63;5156543;27;20497;-65
2021/12/11 07:14:28;;;;;;;3.33;2.58;;;;;;;17.54;31.42;100930.59;5155480;27;20141;-65
2021/12/11 07:16:54;;;;;;;4.90;3.28;;;;;;;17.59;31.32;100929.34;5149382;27;20073;-66
2021/12/11 07:19:19;;;;;;;4.15;2.72;;;;;;;17.62;31.18;100937.94;5154141;27;20054;-65
2021/12/11 07:21:50;;;;;;;6.85;3.78;;;;;;;17.67;30.94;100945.56;5155720;27;20026;-65
2021/12/11 07:24:18;;;;;;;3.63;3.05;;;;;;;17.72;30.92;100939.84;5148198;27;20027;-66
2021/12/11 07:26:44;;;;;;;4.45;3.15;;;;;;;17.78;31.20;100936.63;5135903;27;20043;-64
2021/12/11 07:29:15;;;;;;;3.90;2.83;;;;;;;17.82;31.05;100944.25;5135204;27;20072;-65
2021/12/11 07:31:46;;;;;;;4.95;3.15;;;;;;;17.87;30.86;100938.47;5142915;27;20130;-67
2021/12/11 07:34:12;;;;;;;4.15;2.90;;;;;;;17.89;30.73;100939.19;5154467;27;20129;-64
2021/12/11 07:36:39;;;;;;;4.15;3.05;;;;;;;17.93;30.77;100945.16;5151440;27;20508;-66
2021/12/11 07:39:12;;;;;;;4.13;2.90;;;;;;;17.95;30.85;100944.03;5155111;27;20084;-66
2021/12/11 07:41:38;;;;;;;5.57;3.28;;;;;;;17.98;30.68;100943.81;5156098;27;20050;-65
2021/12/11 07:44:04;;;;;;;4.22;2.70;;;;;;;17.99;30.71;100940.16;5140375;27;20097;-66
2021/12/11 07:46:32;;;;;;;4.65;3.35;;;;;;;18.02;30.31;100948.88;5139328;27;20027;-67
2021/12/11 07:48:58;;;;;;;3.50;2.70;;;;;;;18.04;30.45;100946.91;5155987;27;20392;-66
2021/12/11 07:51:27;;;;;;;2.65;2.15;;;;;;;18.06;30.60;100942.25;5155303;27;20034;-64
2021/12/11 07:53:54;;;;;;;4.97;3.72;;;;;;;18.07;30.29;100944.81;5146293;27;20035;-65
2021/12/11 07:56:20;;;;;;;5.40;2.72;;;;;;;18.07;30.79;100950.19;5155814;27;20037;-67
2021/12/11 07:58:48;;;;;;;3.78;2.65;;;;;;;18.06;30.51;100945.81;5154385;27;20568;-65
2021/12/11 08:01:14;;;;;;;5.07;2.80;;;;;;;18.09;30.48;100958.06;5155484;27;20026;-66
2021/12/11 08:03:41;;;;;;;4.40;2.63;;;;;;;18.06;30.86;100942.25;5158055;27;20437;-65
2021/12/11 08:06:08;;;;;;;4.65;2.90;;;;;;;18.04;30.89;100955.81;5155265;27;20037;-65
2021/12/11 08:08:35;;;;;;;3.55;2.50;;;;;;;18.03;30.88;100955.91;5153495;27;20111;-65
2021/12/11 08:11:05;;;;;;;5.03;3.03;;;;;;;18.01;31.01;100961.41;5155309;27;20043;-64
2021/12/11 08:13:30;;;;;;;4.28;2.80;;;;;;;18.01;31.30;100949.88;5145222;27;20022;-65
2021/12/11 08:15:57;;;;;;;5.00;2.65;;;;;;;18.06;31.43;100963.69;5153751;27;20038;-65
2021/12/11 08:18:25;;;;;;;4.63;2.67;;;;;;;18.05;31.22;100957.50;5149398;27;20030;-64
2021/12/11 08:20:51;;;;;;;5.13;3.30;;;;;;;17.96;30.79;100948.41;5154239;27;20113;-65
2021/12/11 08:23:17;;;;;;;6.85;3.90;;;;;;;17.90;30.48;100956.13;5154145;27;20062;-65
2021/12/11 08:25:45;;;;;;;5.88;4.32;;;;;;;17.82;30.19;100951.44;5154519;27;20526;-64
2021/12/11 08:28:14;;;;;;;8.05;3.90;;;;;;;17.75;29.91;100948.44;5153557;27;20034;-64
2021/12/11 08:30:43;;;;;;;6.93;4.43;;;;;;;17.64;29.44;100944.03;5154208;27;20481;-65
2021/12/11 08:33:09;;;;;;;6.43;4.43;;;;;;;17.59;29.44;100940.06;5147158;27;20056;-65
2021/12/11 08:35:35;;;;;;;5.50;4.15;;;;;;;17.53;29.06;100942.25;5154691;27;20022;-65
2021/12/11 08:38:03;;;;;;;7.13;4.82;;;;;;;17.49;29.09;100942.66;5134683;27;20071;-66
2021/12/11 08:40:31;;;;;;;6.75;4.35;;;;;;;17.45;28.04;100942.09;5151605;27;20035;-64
2021/12/11 08:42:58;;;;;;;5.90;4.10;;;;;;;17.37;28.05;100940.06;5144331;27;20030;-63
2021/12/11 08:45:43;;;;;;;7.32;4.47;;;;;;;17.29;28.22;100939.84;5151762;27;20042;-63
2021/12/11 08:48:09;;;;;;;6.30;4.70;;;;;;;17.19;28.20;100930.91;5146705;27;20029;-63
2021/12/11 08:50:34;;;;;;;6.47;4.10;;;;;;;17.15;28.26;100919.66;5142111;27;20038;-68
2021/12/11 08:53:00;;;;;;;6.80;4.13;;;;;;;17.15;27.94;100918.78;5134174;27;20027;-64
2021/12/11 08:55:30;;;;;;;5.50;4.10;;;;;;;17.15;28.15;100916.09;5153553;27;20038;-73
2021/12/11 08:57:57;;;;;;;10.05;4.72;;;;;;;17.19;28.53;100920.22;5147631;27;20381;-69
2021/12/11 09:00:28;;;;;;;7.75;4.25;;;;;;;17.17;28.55;100907.00;5143437;27;20159;-66
2021/12/11 09:03:05;;;;;;;7.97;4.43;;;;;;;17.20;28.32;100908.56;5135176;27;20117;-67
2021/12/11 09:05:46;;;;;;;6.38;4.13;;;;;;;17.21;28.16;100916.44;5152498;27;20030;-65
2021/12/11 09:08:22;;;;;;;8.75;4.55;;;;;;;17.23;28.41;100919.00;5153217;27;20234;-65
2021/12/11 09:10:53;;;;;;;6.97;4.10;;;;;;;17.26;28.31;100916.06;5133297;27;20027;-65
2021/12/11 09:13:21;;;;;;;;;;;;;;;17.22;28.09;100922.66;5133487;27;20035;-64
2021/12/11 09:15:54;;;;;;;5.93;3.78;;;;;;;17.25;28.91;100925.06;5154034;27;20286;-69
2021/12/11 09:18:45;;;;;;;5.95;4.60;;;;;;;17.27;29.02;100916.91;5151098;27;20030;-65
2021/12/11 09:21:52;;;;;;;6.82;4.28;;;;;;;17.28;29.01;100911.41;5132866;27;20532;-69
2021/12/11 09:24:26;;;;;;;7.15;4.15;;;;;;;17.29;28.94;100910.44;5099664;27;20042;-74
2021/12/11 09:27:07;;;;;;;9.30;4.28;;;;;;;17.32;29.00;100912.84;5133394;27;20057;-70
2021/12/11 09:29:40;;;;;;;6.15;4.28;;;;;;;17.32;28.92;100899.47;5140330;27;20035;-60
2021/12/11 09:32:30;;;;;;;10.80;4.30;;;;;;;17.33;28.93;100895.00;5139311;27;20058;-63
2021/12/11 09:35:21;;;;;;;4.93;3.83;;;;;;;17.37;28.79;100894.59;5146685;27;20083;-69
2021/12/11 09:37:50;;;;;;;8.95;4.85;;;;;;;17.43;29.36;100895.00;5146234;27;20573;-67
2021/12/11 09:40:34;;;;;;;7.93;4.65;;;;;;;17.48;29.18;100887.44;5152661;27;20039;-67
2021/12/11 09:43:00;;;;;;;9.35;4.30;;;;;;;17.50;29.22;100896.19;5151006;27;20034;-66
2021/12/11 09:45:31;;;;;;;9.65;3.95;;;;;;;17.50;29.27;100898.88;5153968;27;20035;-69
2021/12/11 09:48:03;;;;;;;7.90;4.30;;;;;;;17.51;29.02;100904.09;5152889;27;20035;-67
2021/12/11 09:51:21;;;;;;;9.85;4.35;;;;;;;17.51;29.29;100896.06;5147171;27;20031;-68
2021/12/11 09:53:53;;;;;;;8.15;4.05;;;;;;;17.53;28.89;100890.59;5123988;28;20088;-67
2021/12/11 09:56:51;;;;;;;6.80;4.47;;;;;;;17.53;28.85;100895.94;5147382;27;20128;-67
2021/12/11 09:59:21;;;;;;;8.90;4.20;;;;;;;17.53;29.11;100887.91;5126676;27;20104;-67
2021/12/11 10:01:53;;;;;;;6.95;4.32;;;;;;;17.48;28.73;100895.47;5126995;27;20027;-67
2021/12/11 10:04:28;;;;;;;4.43;3.80;;;;;;;17.48;28.88;100893.66;5126864;27;20088;-67
2021/12/11 10:07:24;;;;;;;4.85;3.53;;;;;;;17.46;28.34;100884.06;5126988;27;20173;-67
2021/12/11 10:09:51;;;;;;;9.05;5.00;;;;;;;17.43;28.25;100878.97;5126699;27;20035;-66
2021/12/11 10:12:25;;;;;;;5.85;4.55;;;;;;;17.41;28.05;100875.59;5126967;27;20031;-67
2021/12/11 10:14:53;;;;;;;5.50;3.28;;;;;;;17.38;27.76;100871.34;5126684;27;20019;-67
2021/12/11 10:17:27;;;;;;;7.07;3.92;;;;;;;17.36;28.10;100874.16;5126783;28;20209;-67
2021/12/11 10:19:59;;;;;;;9.25;4.35;;;;;;;17.32;27.94;100878.06;5128573;27;20030;-67
2021/12/11 10:22:33;;;;;;;6.68;4.45;;;;;;;17.26;27.88;100872.41;5147062;27;20027;-67
2021/12/11 10:25:00;;;;;;;8.15;4.55;;;;;;;17.23;27.76;100873.53;5141908;27;20179;-67
2021/12/11 10:27:29;;;;;;;8.18;4.05;;;;;;;17.19;27.95;100878.28;5110016;27;20045;-68
2021/12/11 10:29:56;;;;;;;6.18;4.07;;;;;;;17.13;27.74;100873.47;5147191;27;20027;-65
2021/12/11 10:32:27;;;;;;;6.60;4.43;;;;;;;17.08;28.15;100878.34;5146819;27;20051;-67
2021/12/11 10:34:57;;;;;;;6.90;4.25;;;;;;;17.00;28.06;100879.00;5147007;27;20034;-67
2021/12/11 10:37:29;;;;;;;7.50;4.40;;;;;;;16.90;28.03;100878.03;5147089;27;20046;-67
2021/12/11 10:40:00;;;;;;;5.47;4.57;;;;;;;16.89;28.44;100876.34;5147381;27;20042;-67
2021/12/11 10:42:27;;;;;;;7.20;4.30;;;;;;;16.82;28.12;100870.66;5146871;27;20031;-67
2021/12/11 10:44:56;;;;;;;4.95;3.70;;;;;;;16.78;28.02;100878.09;5147012;27;20038;-66
2021/12/11 10:47:39;;;;;;;6.90;4.22;;;;;;;16.74;28.20;100875.81;5135251;27;20042;-67
2021/12/11 10:50:12;;;;;;;5.45;3.85;;;;;;;16.69;28.07;100870.00;5132143;28;20023;-67
2021/12/11 10:52:39;;;;;;;9.55;4.38;;;;;;;16.67;28.40;100862.13;5139623;27;20055;-67
2021/12/11 10:55:09;;;;;;;6.30;4.88;;;;;;;16.69;28.09;100854.81;5143184;27;20018;-67
2021/12/11 10:57:35;;;;;;;6.25;4.05;;;;;;;16.71;28.15;100857.38;5171271;27;20026;-67
2021/12/11 11:00:05;;;;;;;6.28;4.90;;;;;;;16.74;27.89;100857.94;5171414;27;20090;-67
2021/12/11 11:02:32;;;;;;;6.25;3.63;;;;;;;16.76;27.82;100847.97;5171267;27;20083;-67
2021/12/11 11:05:00;;;;;;;5.22;3.63;;;;;;;16.78;27.72;100855.84;5171094;27;20220;-67
2021/12/11 11:07:27;;;;;;;6.50;4.53;;;;;;;16.77;27.85;100855.03;5171067;27;20050;-68
2021/12/11 11:09:56;;;;;;;7.50;4.75;;;;;;;16.78;27.98;100854.06;5164991;27;20027;-68
2021/12/11 11:12:24;;;;;;;6.82;4.70;;;;;;;16.78;27.75;100848.72;5150213;27;20038;-66
2021/12/11 11:14:53;;;;;;;7.53;4.60;;;;;;;16.80;27.72;100861.94;5150297;27;20030;-68
2021/12/11 11:17:22;;;;;;;5.47;4.07;;;;;;;16.82;27.84;100856.47;5150301;27;20027;-67
2021/12/11 11:19:49;;;;;;;8.57;4.45;;;;;;;16.82;27.70;100848.44;5150141;27;20248;-67
2021/12/11 11:22:20;;;;;;;5.65;4.60;;;;;;;16.85;27.55;100853.50;5149668;27;20083;-69
2021/12/11 11:24:53;;;;;;;9.25;4.80;;;;;;;16.84;27.89;100852.69;5150101;27;20030;-68
2021/12/11 11:27:19;;;;;;;6.53;4.90;;;;;;;16.84;28.00;100843.81;5150209;27;20031;-67
2021/12/11 11:29:45;;;;;;;6.55;4.30;;;;;;;16.89;27.63;100854.97;5150013;27;20170;-67
2021/12/11 11:32:17;;;;;;;6.80;4.53;;;;;;;16.89;27.98;100845.13;5149410;27;20067;-67
2021/12/11 11:34:43;;;;;;;6.90;4.30;;;;;;;16.93;27.58;100845.72;5149832;27;20027;-67
2021/12/11 11:37:14;;;;;;;9.57;5.57;;;;;;;16.92;27.81;100831.47;5149652;27;20114;-67
2021/12/11 11:39:39;;;;;;;6.90;4.67;;;;;;;16.92;27.66;100831.47;5149798;27;20031;-67
2021/12/11 11:42:10;;;;;;;8.50;4.60;;;;;;;16.96;27.79;100831.25;5149598;27;20280;-67
2021/12/11 11:44:39;;;;;;;7.47;4.70;;;;;;;16.99;27.79;100833.69;5149575;27;20023;-67
2021/12/11 11:47:06;;;;;;;6.35;4.35;;;;;;;17.01;27.71;100827.22;5149549;27;20038;-68
2021/12/11 11:49:33;;;;;;;10.07;5.40;;;;;;;17.03;27.51;100830.59;5149519;27;20075;-68
2021/12/11 11:52:05;;;;;;;6.90;4.93;;;;;;;17.03;27.63;100830.59;5149335;27;20178;-68
2021/12/11 11:54:34;;;;;;;7.32;5.10;;;;;;;17.05;27.74;100828.66;5149487;27;20026;-68
2021/12/11 11:57:06;;;;;;;8.95;5.28;;;;;;;17.04;27.31;100820.78;5149375;27;20059;-68
2021/12/11 11:59:32;;;;;;;9.00;5.90;;;;;;;17.08;27.50;100831.06;5149172;27;20042;-68
2021/12/11 12:02:04;;;;;;;6.65;5.07;;;;;;;17.10;27.40;100824.75;5149165;27;20031;-68
2021/12/11 12:04:32;;;;;;;9.10;5.00;;;;;;;17.09;27.42;100821.19;5149493;27;20099;-67
2021/12/11 12:07:00;;;;;;;7.18;5.28;;;;;;;17.10;27.36;100820.22;5149109;27;20050;-67
2021/12/11 12:09:31;;;;;;;7.22;5.25;;;;;;;17.11;27.50;100815.75;5149124;27;20205;-67